Al Udeid, Qatar

7:21 AM AST on September 02, 2014 (GMT +0300)
Al Udeid | Change Station
CLOSE
Current Station
Airport
Location: Al Udeid,
Elevation: 138 ft
Nearby Weather Stations

Elev 138 ft 25.20 °N, 51.32 °E | Updated 23 minutes ago

Clear
Clear
90 °F
Feels Like 113 °F
N
2
Wind Variable Wind from SSE

Today
High -- | Low -- °F
--% Chance of Precip.
Yesterday
High -- | Low -- °F
Precip. -- in
5:15 AM 5:52 PM
Waxing Crescent, 47% visible
Pressure 29.55 in
Visibility 6.2 miles
Clouds Clear
Heat Index 113 °F
Dew Point 82 °F
Humidity 77%
Rainfall 0.00 in
Snow Depth Not available.
UV 2 out of 12
Pollen Not available.
Air Quality Not available.
Flu Activity Not available.
METAR KQIR 020358Z AUTO 15002KT 9999 CLR 33/28 A2955 RMK AO2 SLP007 T03250279 $

More Conditions Fewer Conditions

Pressure 29.55 in
Visibility 6.2 miles
Clouds Clear
Heat Index 113 °F
Dew Point 82 °F
Humidity 77%
Rainfall 0.00 in
Snow Depth Not available.
UV 2 out of 12
Pollen Not available.
Air Quality Not available.
Flu Activity Not available.
METAR KQIR 020358Z AUTO 15002KT 9999 CLR 33/28 A2955 RMK AO2 SLP007 T03250279 $

More Conditions Fewer Conditions

10-Day Weather Forecast

Almanac

Astronomy

Sep. 02, 2014 Rise Set
Actual Time 5:15 AM AST 5:52 PM AST
Civil Twilight 4:52 AM AST 6:16 PM AST
Nautical Twilight 4:25 AM AST 6:43 PM AST
Astronomical Twilight 3:57 AM AST 7:10 PM AST
Moon 11:55 AM AST 11:07 PM AST
Length of Visible Light 13h 23m
Length of Day
12h 37m
Tomorrow will be 1m 25s shorter.
Waxing Crescent, 47% of the Moon is Illuminated
Today
Waxing Crescent
Sep 2
First Quarter
Sep 8
Full
Sep 15
Last Quarter
Sep 24
New

Yesterday's Extremes

Country Highs Country Lows

Community

WunderPhotos

Upload Photos

1,749,560 photos uploaded!

WunderBlogs® & News

Nearby

Snow Depth

Not available.

Earthquake Activity

City Distance Mag. Time & Date
No recent earthquake activity has been reported nearby.
Minimum magnitude displayed is 2.5.

Coastal Water Temperatures

Place Temperature
No Stations Reporting

Nearby Weather Stations